sensor_id;sensor_type;location;lat;lon;timestamp;P1;durP1;ratioP1;P2;durP2;ratioP2
48667;SDS011;34453;52.198;5.004;2024-02-26T00:01:20;3.63;;;3.20;;
48667;SDS011;34453;52.198;5.004;2024-02-26T00:03:46;4.00;;;3.67;;
48667;SDS011;34453;52.198;5.004;2024-02-26T00:06:12;6.93;;;4.53;;
48667;SDS011;34453;52.198;5.004;2024-02-26T00:08:37;3.90;;;3.15;;
48667;SDS011;34453;52.198;5.004;2024-02-26T00:11:03;3.33;;;2.97;;
48667;SDS011;34453;52.198;5.004;2024-02-26T00:13:28;3.30;;;3.13;;
48667;SDS011;34453;52.198;5.004;2024-02-26T00:15:54;3.55;;;3.40;;
48667;SDS011;34453;52.198;5.004;2024-02-26T00:18:19;3.15;;;2.95;;
48667;SDS011;34453;52.198;5.004;2024-02-26T00:20:46;3.72;;;3.53;;
48667;SDS011;34453;52.198;5.004;2024-02-26T00:23:11;6.40;;;3.58;;
48667;SDS011;34453;52.198;5.004;2024-02-26T00:25:36;3.47;;;3.28;;
48667;SDS011;34453;52.198;5.004;2024-02-26T00:28:03;3.40;;;3.20;;
48667;SDS011;34453;52.198;5.004;2024-02-26T00:30:29;3.05;;;2.95;;
48667;SDS011;34453;52.198;5.004;2024-02-26T00:32:54;3.95;;;3.30;;
48667;SDS011;34453;52.198;5.004;2024-02-26T00:35:19;3.83;;;3.53;;
48667;SDS011;34453;52.198;5.004;2024-02-26T00:37:45;4.75;;;3.70;;
48667;SDS011;34453;52.198;5.004;2024-02-26T00:40:11;3.90;;;3.70;;
48667;SDS011;34453;52.198;5.004;2024-02-26T00:42:36;9.00;;;3.67;;
48667;SDS011;34453;52.198;5.004;2024-02-26T00:45:02;4.70;;;3.72;;
48667;SDS011;34453;52.198;5.004;2024-02-26T00:47:27;3.97;;;3.60;;
48667;SDS011;34453;52.198;5.004;2024-02-26T00:49:52;4.50;;;4.20;;
48667;SDS011;34453;52.198;5.004;2024-02-26T00:52:18;4.40;;;4.10;;
48667;SDS011;34453;52.198;5.004;2024-02-26T00:54:43;4.00;;;3.80;;
48667;SDS011;34453;52.198;5.004;2024-02-26T00:57:08;11.45;;;5.65;;
48667;SDS011;34453;52.198;5.004;2024-02-26T00:59:33;5.97;;;4.93;;
48667;SDS011;34453;52.198;5.004;2024-02-26T01:01:59;4.70;;;4.40;;
48667;SDS011;34453;52.198;5.004;2024-02-26T01:04:27;5.07;;;4.78;;
48667;SDS011;34453;52.198;5.004;2024-02-26T01:06:52;7.38;;;5.32;;
48667;SDS011;34453;52.198;5.004;2024-02-26T01:09:18;7.00;;;4.82;;
48667;SDS011;34453;52.198;5.004;2024-02-26T01:11:43;10.43;;;5.30;;
48667;SDS011;34453;52.198;5.004;2024-02-26T01:14:09;6.43;;;5.50;;
48667;SDS011;34453;52.198;5.004;2024-02-26T01:16:34;6.68;;;5.15;;
48667;SDS011;34453;52.198;5.004;2024-02-26T01:18:59;5.18;;;4.68;;
48667;SDS011;34453;52.198;5.004;2024-02-26T01:21:25;11.35;;;5.40;;
48667;SDS011;34453;52.198;5.004;2024-02-26T01:23:52;5.30;;;4.95;;
48667;SDS011;34453;52.198;5.004;2024-02-26T01:26:17;5.28;;;4.97;;
48667;SDS011;34453;52.198;5.004;2024-02-26T01:28:42;5.72;;;5.22;;
48667;SDS011;34453;52.198;5.004;2024-02-26T01:31:09;6.07;;;5.25;;
48667;SDS011;34453;52.198;5.004;2024-02-26T01:33:34;6.82;;;5.32;;
48667;SDS011;34453;52.198;5.004;2024-02-26T01:35:59;6.20;;;5.72;;
48667;SDS011;34453;52.198;5.004;2024-02-26T01:38:26;6.35;;;5.85;;
48667;SDS011;34453;52.198;5.004;2024-02-26T01:40:51;6.85;;;6.20;;
48667;SDS011;34453;52.198;5.004;2024-02-26T01:43:16;6.63;;;6.03;;
48667;SDS011;34453;52.198;5.004;2024-02-26T01:45:42;7.68;;;6.32;;
48667;SDS011;34453;52.198;5.004;2024-02-26T01:48:07;7.90;;;6.15;;
48667;SDS011;34453;52.198;5.004;2024-02-26T01:50:33;6.47;;;5.95;;
48667;SDS011;34453;52.198;5.004;2024-02-26T01:52:59;6.70;;;6.20;;
48667;SDS011;34453;52.198;5.004;2024-02-26T01:55:25;7.07;;;5.85;;
48667;SDS011;34453;52.198;5.004;2024-02-26T01:57:51;9.40;;;6.90;;
48667;SDS011;34453;52.198;5.004;2024-02-26T02:00:18;8.13;;;6.75;;
48667;SDS011;34453;52.198;5.004;2024-02-26T02:02:43;9.07;;;8.27;;
48667;SDS011;34453;52.198;5.004;2024-02-26T02:05:12;6.70;;;6.13;;
48667;SDS011;34453;52.198;5.004;2024-02-26T02:07:37;7.40;;;6.82;;
48667;SDS011;34453;52.198;5.004;2024-02-26T02:10:03;8.45;;;6.07;;
48667;SDS011;34453;52.198;5.004;2024-02-26T02:12:28;9.18;;;7.82;;
48667;SDS011;34453;52.198;5.004;2024-02-26T02:14:54;7.57;;;6.72;;
48667;SDS011;34453;52.198;5.004;2024-02-26T02:17:19;10.80;;;8.07;;
48667;SDS011;34453;52.198;5.004;2024-02-26T02:19:45;7.88;;;7.18;;
48667;SDS011;34453;52.198;5.004;2024-02-26T02:22:11;7.65;;;6.95;;
48667;SDS011;34453;52.198;5.004;2024-02-26T02:24:36;8.20;;;7.40;;
48667;SDS011;34453;52.198;5.004;2024-02-26T02:27:02;8.98;;;6.72;;
48667;SDS011;34453;52.198;5.004;2024-02-26T02:29:27;9.25;;;8.45;;
48667;SDS011;34453;52.198;5.004;2024-02-26T02:31:53;8.73;;;6.72;;
48667;SDS011;34453;52.198;5.004;2024-02-26T02:34:19;7.88;;;7.13;;
48667;SDS011;34453;52.198;5.004;2024-02-26T02:36:53;7.60;;;6.90;;
48667;SDS011;34453;52.198;5.004;2024-02-26T02:39:19;7.40;;;6.70;;
48667;SDS011;34453;52.198;5.004;2024-02-26T02:41:44;7.40;;;6.80;;
48667;SDS011;34453;52.198;5.004;2024-02-26T02:44:10;9.50;;;7.45;;
48667;SDS011;34453;52.198;5.004;2024-02-26T02:46:35;12.75;;;7.93;;
48667;SDS011;34453;52.198;5.004;2024-02-26T02:49:00;7.30;;;6.65;;
48667;SDS011;34453;52.198;5.004;2024-02-26T02:51:26;8.50;;;7.45;;
48667;SDS011;34453;52.198;5.004;2024-02-26T02:53:51;10.30;;;7.25;;
48667;SDS011;34453;52.198;5.004;2024-02-26T02:56:16;7.40;;;6.70;;
48667;SDS011;34453;52.198;5.004;2024-02-26T02:58:42;7.72;;;7.10;;
48667;SDS011;34453;52.198;5.004;2024-02-26T03:01:07;9.25;;;7.25;;
48667;SDS011;34453;52.198;5.004;2024-02-26T03:03:32;7.78;;;7.07;;
48667;SDS011;34453;52.198;5.004;2024-02-26T03:05:58;8.25;;;6.97;;
48667;SDS011;34453;52.198;5.004;2024-02-26T03:08:23;9.38;;;7.78;;
48667;SDS011;34453;52.198;5.004;2024-02-26T03:10:51;7.95;;;7.25;;
48667;SDS011;34453;52.198;5.004;2024-02-26T03:13:16;9.50;;;8.32;;
48667;SDS011;34453;52.198;5.004;2024-02-26T03:15:41;8.82;;;7.85;;
48667;SDS011;34453;52.198;5.004;2024-02-26T03:18:07;11.52;;;8.38;;
48667;SDS011;34453;52.198;5.004;2024-02-26T03:20:32;11.63;;;8.40;;
48667;SDS011;34453;52.198;5.004;2024-02-26T03:22:58;9.32;;;8.23;;
48667;SDS011;34453;52.198;5.004;2024-02-26T03:25:23;11.93;;;9.10;;
48667;SDS011;34453;52.198;5.004;2024-02-26T03:27:48;12.43;;;8.93;;
48667;SDS011;34453;52.198;5.004;2024-02-26T03:30:14;11.93;;;8.60;;
48667;SDS011;34453;52.198;5.004;2024-02-26T03:32:39;8.65;;;7.85;;
48667;SDS011;34453;52.198;5.004;2024-02-26T03:35:04;9.80;;;8.80;;
48667;SDS011;34453;52.198;5.004;2024-02-26T03:37:30;13.55;;;9.65;;
48667;SDS011;34453;52.198;5.004;2024-02-26T03:39:55;12.50;;;8.88;;
48667;SDS011;34453;52.198;5.004;2024-02-26T03:42:22;8.55;;;7.75;;
48667;SDS011;34453;52.198;5.004;2024-02-26T03:44:47;10.52;;;9.32;;
48667;SDS011;34453;52.198;5.004;2024-02-26T03:47:12;13.50;;;8.95;;
48667;SDS011;34453;52.198;5.004;2024-02-26T03:49:38;9.52;;;8.52;;
48667;SDS011;34453;52.198;5.004;2024-02-26T03:52:03;10.85;;;9.65;;
48667;SDS011;34453;52.198;5.004;2024-02-26T03:54:28;9.70;;;8.43;;
48667;SDS011;34453;52.198;5.004;2024-02-26T03:56:54;9.30;;;8.38;;
48667;SDS011;34453;52.198;5.004;2024-02-26T03:59:19;13.70;;;9.43;;
48667;SDS011;34453;52.198;5.004;2024-02-26T04:01:46;11.65;;;9.43;;
48667;SDS011;34453;52.198;5.004;2024-02-26T04:04:12;10.98;;;8.45;;
48667;SDS011;34453;52.198;5.004;2024-02-26T04:06:38;10.32;;;8.80;;
48667;SDS011;34453;52.198;5.004;2024-02-26T04:09:03;11.65;;;9.52;;
48667;SDS011;34453;52.198;5.004;2024-02-26T04:11:29;10.73;;;9.60;;
48667;SDS011;34453;52.198;5.004;2024-02-26T04:13:54;9.52;;;8.48;;
48667;SDS011;34453;52.198;5.004;2024-02-26T04:16:19;13.23;;;9.75;;
48667;SDS011;34453;52.198;5.004;2024-02-26T04:18:45;10.00;;;8.98;;
48667;SDS011;34453;52.198;5.004;2024-02-26T04:21:10;14.88;;;8.98;;
48667;SDS011;34453;52.198;5.004;2024-02-26T04:23:37;11.65;;;9.05;;
48667;SDS011;34453;52.198;5.004;2024-02-26T04:26:02;12.90;;;9.20;;
48667;SDS011;34453;52.198;5.004;2024-02-26T04:28:29;11.48;;;8.93;;
48667;SDS011;34453;52.198;5.004;2024-02-26T04:30:55;12.90;;;9.70;;
48667;SDS011;34453;52.198;5.004;2024-02-26T04:33:20;12.45;;;9.10;;
48667;SDS011;34453;52.198;5.004;2024-02-26T04:35:45;10.77;;;8.88;;
48667;SDS011;34453;52.198;5.004;2024-02-26T04:38:11;11.65;;;9.30;;
48667;SDS011;34453;52.198;5.004;2024-02-26T04:40:36;12.85;;;9.50;;
48667;SDS011;34453;52.198;5.004;2024-02-26T04:43:01;10.05;;;8.57;;
48667;SDS011;34453;52.198;5.004;2024-02-26T04:45:28;10.32;;;8.75;;
48667;SDS011;34453;52.198;5.004;2024-02-26T04:47:54;10.95;;;8.50;;
48667;SDS011;34453;52.198;5.004;2024-02-26T04:50:19;12.40;;;8.90;;
48667;SDS011;34453;52.198;5.004;2024-02-26T04:52:45;10.60;;;8.25;;
48667;SDS011;34453;52.198;5.004;2024-02-26T04:55:10;10.90;;;8.45;;
48667;SDS011;34453;52.198;5.004;2024-02-26T04:57:36;9.45;;;7.63;;
48667;SDS011;34453;52.198;5.004;2024-02-26T05:00:01;10.32;;;8.73;;
48667;SDS011;34453;52.198;5.004;2024-02-26T05:02:26;13.77;;;8.65;;
48667;SDS011;34453;52.198;5.004;2024-02-26T05:04:52;14.15;;;9.02;;
48667;SDS011;34453;52.198;5.004;2024-02-26T05:07:17;8.75;;;7.78;;
48667;SDS011;34453;52.198;5.004;2024-02-26T05:09:43;11.57;;;8.75;;
48667;SDS011;34453;52.198;5.004;2024-02-26T05:12:09;11.55;;;8.80;;
48667;SDS011;34453;52.198;5.004;2024-02-26T05:14:34;12.48;;;9.18;;
48667;SDS011;34453;52.198;5.004;2024-02-26T05:16:59;11.85;;;8.85;;
48667;SDS011;34453;52.198;5.004;2024-02-26T05:19:25;12.07;;;9.55;;
48667;SDS011;34453;52.198;5.004;2024-02-26T05:21:50;11.65;;;9.38;;
48667;SDS011;34453;52.198;5.004;2024-02-26T05:24:15;13.27;;;8.88;;
48667;SDS011;34453;52.198;5.004;2024-02-26T05:26:42;11.43;;;9.13;;
48667;SDS011;34453;52.198;5.004;2024-02-26T05:29:07;14.40;;;10.13;;
48667;SDS011;34453;52.198;5.004;2024-02-26T05:31:33;14.00;;;10.00;;
48667;SDS011;34453;52.198;5.004;2024-02-26T05:33:58;14.68;;;10.27;;
48667;SDS011;34453;52.198;5.004;2024-02-26T05:36:24;18.20;;;10.48;;
48667;SDS011;34453;52.198;5.004;2024-02-26T05:38:51;17.10;;;10.10;;
48667;SDS011;34453;52.198;5.004;2024-02-26T05:41:16;16.48;;;10.52;;
48667;SDS011;34453;52.198;5.004;2024-02-26T05:43:42;13.95;;;10.98;;
48667;SDS011;34453;52.198;5.004;2024-02-26T05:46:07;13.50;;;9.63;;
48667;SDS011;34453;52.198;5.004;2024-02-26T05:48:33;16.10;;;10.13;;
48667;SDS011;34453;52.198;5.004;2024-02-26T05:50:58;16.63;;;10.60;;
48667;SDS011;34453;52.198;5.004;2024-02-26T05:53:24;17.48;;;11.82;;
48667;SDS011;34453;52.198;5.004;2024-02-26T05:55:49;16.98;;;11.40;;
48667;SDS011;34453;52.198;5.004;2024-02-26T05:58:14;18.30;;;11.82;;
48667;SDS011;34453;52.198;5.004;2024-02-26T06:00:40;20.02;;;11.45;;
48667;SDS011;34453;52.198;5.004;2024-02-26T06:03:05;20.88;;;12.73;;
48667;SDS011;34453;52.198;5.004;2024-02-26T06:05:31;17.45;;;11.50;;
48667;SDS011;34453;52.198;5.004;2024-02-26T06:07:56;21.63;;;12.27;;
48667;SDS011;34453;52.198;5.004;2024-02-26T06:10:21;17.77;;;12.43;;
48667;SDS011;34453;52.198;5.004;2024-02-26T06:12:47;22.25;;;13.63;;
48667;SDS011;34453;52.198;5.004;2024-02-26T06:15:13;17.73;;;11.55;;
48667;SDS011;34453;52.198;5.004;2024-02-26T06:17:38;23.30;;;13.57;;
48667;SDS011;34453;52.198;5.004;2024-02-26T06:20:05;21.35;;;14.23;;
48667;SDS011;34453;52.198;5.004;2024-02-26T06:22:31;24.02;;;14.55;;
48667;SDS011;34453;52.198;5.004;2024-02-26T06:24:57;23.45;;;13.77;;
48667;SDS011;34453;52.198;5.004;2024-02-26T06:27:22;24.33;;;15.60;;
48667;SDS011;34453;52.198;5.004;2024-02-26T06:29:47;24.67;;;15.40;;
48667;SDS011;34453;52.198;5.004;2024-02-26T06:32:13;29.40;;;15.88;;
48667;SDS011;34453;52.198;5.004;2024-02-26T06:34:39;21.73;;;14.63;;
48667;SDS011;34453;52.198;5.004;2024-02-26T06:37:06;28.00;;;16.95;;
48667;SDS011;34453;52.198;5.004;2024-02-26T06:39:31;25.70;;;15.90;;
48667;SDS011;34453;52.198;5.004;2024-02-26T06:41:56;24.33;;;15.38;;
48667;SDS011;34453;52.198;5.004;2024-02-26T06:44:25;28.10;;;16.45;;
48667;SDS011;34453;52.198;5.004;2024-02-26T06:46:51;29.92;;;16.98;;
48667;SDS011;34453;52.198;5.004;2024-02-26T06:49:17;26.48;;;17.08;;
48667;SDS011;34453;52.198;5.004;2024-02-26T06:51:42;29.40;;;18.95;;
48667;SDS011;34453;52.198;5.004;2024-02-26T06:54:07;30.77;;;19.45;;
48667;SDS011;34453;52.198;5.004;2024-02-26T06:56:34;25.13;;;17.75;;
48667;SDS011;34453;52.198;5.004;2024-02-26T06:59:00;26.17;;;17.92;;
48667;SDS011;34453;52.198;5.004;2024-02-26T07:01:25;26.98;;;16.75;;
48667;SDS011;34453;52.198;5.004;2024-02-26T07:03:50;29.15;;;18.15;;
48667;SDS011;34453;52.198;5.004;2024-02-26T07:06:15;28.88;;;16.88;;
48667;SDS011;34453;52.198;5.004;2024-02-26T07:08:41;21.25;;;16.23;;
48667;SDS011;34453;52.198;5.004;2024-02-26T07:11:07;25.20;;;17.08;;
48667;SDS011;34453;52.198;5.004;2024-02-26T07:13:33;26.52;;;17.98;;
48667;SDS011;34453;52.198;5.004;2024-02-26T07:15:58;25.17;;;16.10;;
48667;SDS011;34453;52.198;5.004;2024-02-26T07:18:24;24.67;;;16.02;;
48667;SDS011;34453;52.198;5.004;2024-02-26T07:20:49;25.02;;;15.75;;
48667;SDS011;34453;52.198;5.004;2024-02-26T07:23:14;23.88;;;16.48;;
48667;SDS011;34453;52.198;5.004;2024-02-26T07:25:40;23.45;;;16.02;;
48667;SDS011;34453;52.198;5.004;2024-02-26T07:28:06;18.40;;;14.90;;
48667;SDS011;34453;52.198;5.004;2024-02-26T07:30:31;18.83;;;13.85;;
48667;SDS011;34453;52.198;5.004;2024-02-26T07:32:57;20.02;;;13.85;;
48667;SDS011;34453;52.198;5.004;2024-02-26T07:35:23;24.15;;;15.32;;
48667;SDS011;34453;52.198;5.004;2024-02-26T07:37:49;18.48;;;14.38;;
48667;SDS011;34453;52.198;5.004;2024-02-26T07:40:16;17.35;;;13.63;;
48667;SDS011;34453;52.198;5.004;2024-02-26T07:42:42;19.08;;;13.63;;
48667;SDS011;34453;52.198;5.004;2024-02-26T07:45:08;16.50;;;13.45;;
48667;SDS011;34453;52.198;5.004;2024-02-26T07:47:33;18.35;;;13.48;;
48667;SDS011;34453;52.198;5.004;2024-02-26T07:50:00;17.58;;;12.80;;
48667;SDS011;34453;52.198;5.004;2024-02-26T07:52:26;20.90;;;13.02;;
48667;SDS011;34453;52.198;5.004;2024-02-26T07:54:51;15.43;;;11.95;;
48667;SDS011;34453;52.198;5.004;2024-02-26T07:57:16;17.92;;;12.20;;
48667;SDS011;34453;52.198;5.004;2024-02-26T07:59:42;16.17;;;11.90;;
48667;SDS011;34453;52.198;5.004;2024-02-26T08:02:10;13.45;;;11.35;;
48667;SDS011;34453;52.198;5.004;2024-02-26T08:04:35;19.17;;;12.23;;
48667;SDS011;34453;52.198;5.004;2024-02-26T08:07:00;16.55;;;11.82;;
48667;SDS011;34453;52.198;5.004;2024-02-26T08:09:26;14.70;;;11.55;;
48667;SDS011;34453;52.198;5.004;2024-02-26T08:11:51;11.52;;;9.95;;
48667;SDS011;34453;52.198;5.004;2024-02-26T08:14:17;14.93;;;10.18;;
48667;SDS011;34453;52.198;5.004;2024-02-26T08:16:42;10.90;;;9.57;;
48667;SDS011;34453;52.198;5.004;2024-02-26T08:19:07;14.23;;;9.27;;
48667;SDS011;34453;52.198;5.004;2024-02-26T08:21:35;18.63;;;9.82;;
48667;SDS011;34453;52.198;5.004;2024-02-26T08:24:02;11.63;;;8.55;;
48667;SDS011;34453;52.198;5.004;2024-02-26T08:26:27;14.45;;;10.35;;
48667;SDS011;34453;52.198;5.004;2024-02-26T08:28:52;10.45;;;8.57;;
48667;SDS011;34453;52.198;5.004;2024-02-26T08:31:19;9.25;;;8.13;;
48667;SDS011;34453;52.198;5.004;2024-02-26T08:33:45;11.23;;;8.85;;
48667;SDS011;34453;52.198;5.004;2024-02-26T08:36:11;13.05;;;8.45;;
48667;SDS011;34453;52.198;5.004;2024-02-26T08:38:36;9.35;;;8.15;;
48667;SDS011;34453;52.198;5.004;2024-02-26T08:41:02;10.93;;;7.38;;
48667;SDS011;34453;52.198;5.004;2024-02-26T08:43:32;7.97;;;7.22;;
48667;SDS011;34453;52.198;5.004;2024-02-26T08:45:57;9.68;;;7.45;;
48667;SDS011;34453;52.198;5.004;2024-02-26T08:48:23;10.88;;;7.55;;
48667;SDS011;34453;52.198;5.004;2024-02-26T08:50:48;8.90;;;6.63;;
48667;SDS011;34453;52.198;5.004;2024-02-26T08:53:14;6.78;;;6.15;;
48667;SDS011;34453;52.198;5.004;2024-02-26T08:55:39;11.48;;;6.38;;
48667;SDS011;34453;52.198;5.004;2024-02-26T08:58:04;6.93;;;6.28;;
48667;SDS011;34453;52.198;5.004;2024-02-26T09:00:30;7.43;;;6.68;;
48667;SDS011;34453;52.198;5.004;2024-02-26T09:02:56;7.38;;;5.80;;
48667;SDS011;34453;52.198;5.004;2024-02-26T09:05:21;6.10;;;5.60;;
48667;SDS011;34453;52.198;5.004;2024-02-26T09:07:46;6.43;;;5.93;;
48667;SDS011;34453;52.198;5.004;2024-02-26T09:10:12;6.43;;;5.78;;
48667;SDS011;34453;52.198;5.004;2024-02-26T09:12:37;7.80;;;5.95;;
48667;SDS011;34453;52.198;5.004;2024-02-26T09:15:03;7.03;;;6.32;;
48667;SDS011;34453;52.198;5.004;2024-02-26T09:17:28;6.95;;;5.63;;
48667;SDS011;34453;52.198;5.004;2024-02-26T09:19:54;5.95;;;5.43;;
48667;SDS011;34453;52.198;5.004;2024-02-26T09:22:19;6.35;;;5.78;;
48667;SDS011;34453;52.198;5.004;2024-02-26T09:24:45;6.13;;;5.63;;
48667;SDS011;34453;52.198;5.004;2024-02-26T09:27:10;5.85;;;5.25;;
48667;SDS011;34453;52.198;5.004;2024-02-26T09:29:35;6.32;;;5.72;;
48667;SDS011;34453;52.198;5.004;2024-02-26T09:32:01;5.35;;;4.95;;
48667;SDS011;34453;52.198;5.004;2024-02-26T09:34:26;5.70;;;5.20;;
48667;SDS011;34453;52.198;5.004;2024-02-26T09:36:53;5.55;;;5.05;;
48667;SDS011;34453;52.198;5.004;2024-02-26T09:39:18;6.10;;;5.57;;
48667;SDS011;34453;52.198;5.004;2024-02-26T09:41:47;5.45;;;5.13;;
48667;SDS011;34453;52.198;5.004;2024-02-26T09:44:12;5.38;;;4.78;;
48667;SDS011;34453;52.198;5.004;2024-02-26T09:46:40;8.50;;;5.85;;
48667;SDS011;34453;52.198;5.004;2024-02-26T09:49:06;5.10;;;4.70;;
48667;SDS011;34453;52.198;5.004;2024-02-26T09:51:32;5.68;;;5.15;;
48667;SDS011;34453;52.198;5.004;2024-02-26T09:53:59;5.38;;;4.97;;
48667;SDS011;34453;52.198;5.004;2024-02-26T09:56:26;7.32;;;5.60;;
48667;SDS011;34453;52.198;5.004;2024-02-26T09:58:51;6.45;;;5.65;;
48667;SDS011;34453;52.198;5.004;2024-02-26T10:01:19;5.78;;;5.25;;
48667;SDS011;34453;52.198;5.004;2024-02-26T10:03:48;5.63;;;5.07;;
48667;SDS011;34453;52.198;5.004;2024-02-26T10:06:15;5.85;;;5.35;;
48667;SDS011;34453;52.198;5.004;2024-02-26T10:08:40;8.43;;;6.22;;
48667;SDS011;34453;52.198;5.004;2024-02-26T10:11:07;6.07;;;5.47;;
48667;SDS011;34453;52.198;5.004;2024-02-26T10:13:34;9.23;;;6.82;;
48667;SDS011;34453;52.198;5.004;2024-02-26T10:16:00;17.10;;;10.15;;
48667;SDS011;34453;52.198;5.004;2024-02-26T10:18:45;7.47;;;6.03;;
48667;SDS011;34453;52.198;5.004;2024-02-26T10:21:10;8.95;;;6.28;;
48667;SDS011;34453;52.198;5.004;2024-02-26T10:23:35;6.53;;;5.93;;
48667;SDS011;34453;52.198;5.004;2024-02-26T10:26:01;6.80;;;6.20;;
48667;SDS011;34453;52.198;5.004;2024-02-26T10:28:26;5.97;;;5.35;;
48667;SDS011;34453;52.198;5.004;2024-02-26T10:30:54;5.88;;;5.20;;
48667;SDS011;34453;52.198;5.004;2024-02-26T10:33:20;7.18;;;5.47;;
48667;SDS011;34453;52.198;5.004;2024-02-26T10:35:48;5.45;;;4.95;;
48667;SDS011;34453;52.198;5.004;2024-02-26T10:38:13;7.03;;;5.78;;
48667;SDS011;34453;52.198;5.004;2024-02-26T10:40:41;6.68;;;5.88;;
48667;SDS011;34453;52.198;5.004;2024-02-26T10:43:07;6.07;;;5.57;;
48667;SDS011;34453;52.198;5.004;2024-02-26T10:45:32;6.63;;;6.00;;
48667;SDS011;34453;52.198;5.004;2024-02-26T10:47:57;5.95;;;5.45;;
48667;SDS011;34453;52.198;5.004;2024-02-26T10:50:23;6.00;;;5.50;;
48667;SDS011;34453;52.198;5.004;2024-02-26T10:52:49;6.85;;;6.25;;
48667;SDS011;34453;52.198;5.004;2024-02-26T10:55:17;8.23;;;5.75;;
48667;SDS011;34453;52.198;5.004;2024-02-26T10:57:45;6.28;;;5.72;;
48667;SDS011;34453;52.198;5.004;2024-02-26T11:00:11;6.60;;;6.00;;
48667;SDS011;34453;52.198;5.004;2024-02-26T11:02:38;9.45;;;6.35;;
48667;SDS011;34453;52.198;5.004;2024-02-26T11:05:05;7.10;;;6.20;;
48667;SDS011;34453;52.198;5.004;2024-02-26T11:07:31;8.32;;;5.68;;
48667;SDS011;34453;52.198;5.004;2024-02-26T11:09:59;7.40;;;6.70;;
48667;SDS011;34453;52.198;5.004;2024-02-26T11:12:27;10.65;;;6.45;;
48667;SDS011;34453;52.198;5.004;2024-02-26T11:14:53;6.32;;;5.65;;
48667;SDS011;34453;52.198;5.004;2024-02-26T11:17:22;6.43;;;5.93;;
48667;SDS011;34453;52.198;5.004;2024-02-26T11:19:47;6.63;;;5.95;;
48667;SDS011;34453;52.198;5.004;2024-02-26T11:22:14;5.95;;;5.32;;
48667;SDS011;34453;52.198;5.004;2024-02-26T11:24:40;6.57;;;5.88;;
48667;SDS011;34453;52.198;5.004;2024-02-26T11:27:08;7.57;;;5.97;;
48667;SDS011;34453;52.198;5.004;2024-02-26T11:29:38;7.38;;;5.50;;
48667;SDS011;34453;52.198;5.004;2024-02-26T11:32:04;6.03;;;5.45;;
48667;SDS011;34453;52.198;5.004;2024-02-26T11:34:30;6.97;;;5.80;;
48667;SDS011;34453;52.198;5.004;2024-02-26T11:36:56;6.57;;;5.95;;
48667;SDS011;34453;52.198;5.004;2024-02-26T11:39:22;5.88;;;5.22;;
48667;SDS011;34453;52.198;5.004;2024-02-26T11:41:47;7.10;;;5.85;;
48667;SDS011;34453;52.198;5.004;2024-02-26T11:44:13;5.90;;;5.25;;
48667;SDS011;34453;52.198;5.004;2024-02-26T11:46:39;9.70;;;5.47;;
48667;SDS011;34453;52.198;5.004;2024-02-26T11:51:52;5.72;;;5.05;;
48667;SDS011;34453;52.198;5.004;2024-02-26T11:57:04;5.95;;;5.45;;
48667;SDS011;34453;52.198;5.004;2024-02-26T11:59:44;5.38;;;4.97;;
48667;SDS011;34453;52.198;5.004;2024-02-26T12:02:10;5.53;;;4.82;;
48667;SDS011;34453;52.198;5.004;2024-02-26T12:04:37;6.13;;;5.20;;
48667;SDS011;34453;52.198;5.004;2024-02-26T12:07:03;5.72;;;5.28;;
48667;SDS011;34453;52.198;5.004;2024-02-26T12:11:59;5.57;;;5.07;;
48667;SDS011;34453;52.198;5.004;2024-02-26T12:14:25;6.40;;;5.03;;
48667;SDS011;34453;52.198;5.004;2024-02-26T12:16:51;5.07;;;4.78;;
48667;SDS011;34453;52.198;5.004;2024-02-26T12:19:17;4.75;;;4.35;;
48667;SDS011;34453;52.198;5.004;2024-02-26T12:21:43;5.20;;;4.80;;
48667;SDS011;34453;52.198;5.004;2024-02-26T12:24:14;4.53;;;4.22;;
48667;SDS011;34453;52.198;5.004;2024-02-26T12:26:43;5.20;;;4.72;;
48667;SDS011;34453;52.198;5.004;2024-02-26T12:29:08;4.30;;;4.00;;
48667;SDS011;34453;52.198;5.004;2024-02-26T12:31:35;7.32;;;5.05;;
48667;SDS011;34453;52.198;5.004;2024-02-26T12:34:02;8.32;;;4.55;;
48667;SDS011;34453;52.198;5.004;2024-02-26T12:36:27;5.03;;;4.35;;
48667;SDS011;34453;52.198;5.004;2024-02-26T12:38:53;4.65;;;3.72;;
48667;SDS011;34453;52.198;5.004;2024-02-26T12:41:18;5.72;;;4.88;;
48667;SDS011;34453;52.198;5.004;2024-02-26T12:43:44;4.20;;;3.80;;
48667;SDS011;34453;52.198;5.004;2024-02-26T12:46:10;6.57;;;4.70;;
48667;SDS011;34453;52.198;5.004;2024-02-26T12:48:36;4.60;;;3.80;;
48667;SDS011;34453;52.198;5.004;2024-02-26T12:51:01;4.47;;;4.13;;
48667;SDS011;34453;52.198;5.004;2024-02-26T12:53:27;4.80;;;4.40;;
48667;SDS011;34453;52.198;5.004;2024-02-26T12:55:53;5.32;;;4.93;;
48667;SDS011;34453;52.198;5.004;2024-02-26T12:58:19;5.78;;;4.40;;
48667;SDS011;34453;52.198;5.004;2024-02-26T13:00:45;4.00;;;3.80;;
48667;SDS011;34453;52.198;5.004;2024-02-26T13:03:11;4.68;;;4.28;;
48667;SDS011;34453;52.198;5.004;2024-02-26T13:05:37;4.88;;;4.47;;
48667;SDS011;34453;52.198;5.004;2024-02-26T13:08:02;3.95;;;3.65;;
48667;SDS011;34453;52.198;5.004;2024-02-26T13:10:28;4.63;;;3.83;;
48667;SDS011;34453;52.198;5.004;2024-02-26T13:12:53;5.00;;;4.57;;
48667;SDS011;34453;52.198;5.004;2024-02-26T13:15:19;4.70;;;4.40;;
48667;SDS011;34453;52.198;5.004;2024-02-26T13:17:45;8.02;;;4.70;;
48667;SDS011;34453;52.198;5.004;2024-02-26T13:20:11;4.63;;;4.22;;
48667;SDS011;34453;52.198;5.004;2024-02-26T13:22:37;5.30;;;3.70;;
48667;SDS011;34453;52.198;5.004;2024-02-26T13:25:02;5.15;;;4.60;;
48667;SDS011;34453;52.198;5.004;2024-02-26T13:27:28;4.97;;;4.40;;
48667;SDS011;34453;52.198;5.004;2024-02-26T13:32:27;6.88;;;3.83;;
48667;SDS011;34453;52.198;5.004;2024-02-26T13:35:09;6.78;;;3.47;;
48667;SDS011;34453;52.198;5.004;2024-02-26T13:37:36;4.90;;;3.20;;
48667;SDS011;34453;52.198;5.004;2024-02-26T13:40:04;4.75;;;2.80;;
48667;SDS011;34453;52.198;5.004;2024-02-26T13:42:30;3.30;;;3.10;;
48667;SDS011;34453;52.198;5.004;2024-02-26T13:44:56;2.67;;;2.58;;
48667;SDS011;34453;52.198;5.004;2024-02-26T13:47:21;3.42;;;2.70;;
48667;SDS011;34453;52.198;5.004;2024-02-26T13:49:46;4.00;;;3.35;;
48667;SDS011;34453;52.198;5.004;2024-02-26T13:52:12;3.92;;;3.38;;
48667;SDS011;34453;52.198;5.004;2024-02-26T13:54:37;2.90;;;2.65;;
48667;SDS011;34453;52.198;5.004;2024-02-26T13:57:04;3.05;;;2.85;;
48667;SDS011;34453;52.198;5.004;2024-02-26T13:59:29;3.08;;;2.78;;
48667;SDS011;34453;52.198;5.004;2024-02-26T14:01:54;2.95;;;2.72;;
48667;SDS011;34453;52.198;5.004;2024-02-26T14:04:20;2.55;;;2.45;;
48667;SDS011;34453;52.198;5.004;2024-02-26T14:06:45;2.65;;;2.50;;
48667;SDS011;34453;52.198;5.004;2024-02-26T14:09:11;3.05;;;2.70;;
48667;SDS011;34453;52.198;5.004;2024-02-26T14:11:36;4.93;;;3.15;;
48667;SDS011;34453;52.198;5.004;2024-02-26T14:14:02;3.33;;;3.08;;
48667;SDS011;34453;52.198;5.004;2024-02-26T14:16:28;3.83;;;3.40;;
48667;SDS011;34453;52.198;5.004;2024-02-26T14:18:54;4.13;;;2.88;;
48667;SDS011;34453;52.198;5.004;2024-02-26T14:21:19;2.63;;;2.42;;
48667;SDS011;34453;52.198;5.004;2024-02-26T14:23:45;3.63;;;2.75;;
48667;SDS011;34453;52.198;5.004;2024-02-26T14:26:11;3.10;;;2.90;;
48667;SDS011;34453;52.198;5.004;2024-02-26T14:28:36;2.90;;;2.47;;
48667;SDS011;34453;52.198;5.004;2024-02-26T14:31:02;5.07;;;2.65;;
48667;SDS011;34453;52.198;5.004;2024-02-26T14:33:29;4.50;;;2.28;;
48667;SDS011;34453;52.198;5.004;2024-02-26T14:35:55;2.97;;;2.67;;
48667;SDS011;34453;52.198;5.004;2024-02-26T14:38:20;3.20;;;2.40;;
48667;SDS011;34453;52.198;5.004;2024-02-26T14:40:46;5.55;;;2.70;;
48667;SDS011;34453;52.198;5.004;2024-02-26T14:43:11;4.32;;;3.45;;